createdAt,value
2022-10-05T00:00:23.277Z,100.00
2022-10-05T00:02:52.515Z,100.00
2022-10-05T00:05:32.007Z,100.00
2022-10-05T00:08:14.201Z,100.00
2022-10-05T00:10:42.529Z,100.00
2022-10-05T00:13:27.254Z,100.00
2022-10-05T00:16:04.941Z,100.00
2022-10-05T00:18:32.745Z,100.00
2022-10-05T00:21:00.157Z,100.00
2022-10-05T00:23:31.760Z,100.00
2022-10-05T00:26:32.163Z,100.00
2022-10-05T00:28:58.975Z,100.00
2022-10-05T00:31:31.041Z,100.00
2022-10-05T00:33:58.093Z,100.00
2022-10-05T00:36:26.297Z,100.00
2022-10-05T00:38:54.215Z,100.00
2022-10-05T00:41:59.126Z,100.00
2022-10-05T00:44:38.567Z,100.00
2022-10-05T00:47:08.011Z,100.00
2022-10-05T00:50:08.277Z,100.00
2022-10-05T00:52:46.729Z,100.00
2022-10-05T00:55:19.519Z,100.00
2022-10-05T00:57:55.258Z,100.00
2022-10-05T01:00:26.305Z,100.00
2022-10-05T01:03:06.639Z,100.00
2022-10-05T01:05:47.888Z,100.00
2022-10-05T01:08:30.657Z,100.00
2022-10-05T01:11:12.604Z,100.00
2022-10-05T01:13:55.398Z,100.00
2022-10-05T01:16:54.542Z,100.00
2022-10-05T01:19:30.020Z,100.00
2022-10-05T01:22:35.766Z,100.00
2022-10-05T01:25:18.941Z,100.00
2022-10-05T01:28:05.860Z,100.00
2022-10-05T01:30:42.901Z,100.00
2022-10-05T01:33:27.911Z,100.00
2022-10-05T01:36:33.132Z,100.00
2022-10-05T01:39:14.149Z,100.00
2022-10-05T01:42:08.069Z,100.00
2022-10-05T01:44:57.804Z,100.00
2022-10-05T01:47:37.148Z,100.00
2022-10-05T01:50:07.123Z,100.00
2022-10-05T01:52:47.448Z,100.00
2022-10-05T01:55:39.231Z,100.00
2022-10-05T01:58:36.484Z,100.00
2022-10-05T02:01:35.266Z,100.00
2022-10-05T02:04:43.365Z,100.00
2022-10-05T02:07:16.808Z,100.00
2022-10-05T02:09:59.218Z,100.00
2022-10-05T02:12:29.469Z,100.00
2022-10-05T02:15:02.454Z,100.00
2022-10-05T02:17:59.295Z,100.00
2022-10-05T02:20:30.201Z,100.00
2022-10-05T02:23:12.668Z,100.00
2022-10-05T02:25:42.878Z,100.00
2022-10-05T02:28:43.567Z,100.00
2022-10-05T02:31:22.590Z,100.00
2022-10-05T02:33:49.392Z,100.00
2022-10-05T02:36:19.915Z,100.00
2022-10-05T02:39:18.288Z,100.00
2022-10-05T02:42:02.482Z,100.00
2022-10-05T02:44:34.912Z,100.00
2022-10-05T02:47:13.507Z,100.00
2022-10-05T02:50:07.978Z,100.00
2022-10-05T02:53:01.686Z,100.00
2022-10-05T02:55:35.669Z,100.00
2022-10-05T02:58:02.252Z,100.00
2022-10-05T03:00:34.397Z,100.00
2022-10-05T03:03:19.416Z,100.00
2022-10-05T03:05:53.334Z,100.00
2022-10-05T03:08:27.071Z,100.00
2022-10-05T03:11:27.617Z,100.00
2022-10-05T03:14:09.634Z,100.00
2022-10-05T03:16:55.489Z,100.00
2022-10-05T03:19:43.560Z,100.00
2022-10-05T03:22:50.489Z,100.00
2022-10-05T03:25:38.363Z,100.00
2022-10-05T03:28:23.661Z,100.00
2022-10-05T03:31:03.097Z,100.00
2022-10-05T03:33:53.314Z,100.00
2022-10-05T03:36:42.794Z,100.00
2022-10-05T03:39:27.096Z,100.00
2022-10-05T03:42:21.250Z,100.00
2022-10-05T03:45:06.666Z,100.00
2022-10-05T03:48:01.670Z,100.00
2022-10-05T03:50:55.519Z,100.00
2022-10-05T03:53:25.515Z,100.00
2022-10-05T03:55:59.772Z,100.00
2022-10-05T03:58:34.753Z,100.00
2022-10-05T04:01:07.490Z,100.00
2022-10-05T04:03:40.567Z,100.00
2022-10-05T04:06:16.163Z,100.00
2022-10-05T04:08:57.476Z,100.00
2022-10-05T04:11:34.376Z,100.00
2022-10-05T04:14:07.435Z,100.00
2022-10-05T04:16:41.334Z,100.00
2022-10-05T04:19:19.382Z,100.00
2022-10-05T04:22:07.847Z,100.00
2022-10-05T04:24:53.324Z,100.00
2022-10-05T04:27:24.391Z,100.00
2022-10-05T04:30:02.558Z,100.00
2022-10-05T04:32:43.959Z,100.00
2022-10-05T04:35:26.174Z,100.00
2022-10-05T04:37:55.830Z,100.00
2022-10-05T04:40:25.423Z,100.00
2022-10-05T04:43:17.826Z,100.00
2022-10-05T04:45:56.209Z,100.00
2022-10-05T04:48:31.989Z,100.00
2022-10-05T04:51:40.067Z,100.00
2022-10-05T04:54:20.882Z,100.00
2022-10-05T04:57:01.781Z,100.00
2022-10-05T04:59:54.816Z,100.00
2022-10-05T05:02:39.845Z,100.00
2022-10-05T05:05:23.324Z,100.00
2022-10-05T05:08:16.991Z,100.00
2022-10-05T05:10:52.794Z,100.00
2022-10-05T05:13:43.340Z,100.00
2022-10-05T05:16:28.278Z,100.00
2022-10-05T05:19:07.018Z,100.00
2022-10-05T05:21:58.280Z,100.00
2022-10-05T05:24:32.298Z,100.00
2022-10-05T05:27:13.236Z,100.00
2022-10-05T05:30:07.718Z,100.00
2022-10-05T05:32:52.552Z,100.00
2022-10-05T05:35:41.145Z,100.00
2022-10-05T05:38:13.501Z,100.00
2022-10-05T05:40:59.607Z,100.00
2022-10-05T05:43:41.744Z,100.00
2022-10-05T05:46:58.281Z,100.00
2022-10-05T05:49:27.811Z,100.00
2022-10-05T05:52:04.977Z,100.00
2022-10-05T05:54:37.402Z,100.00
2022-10-05T05:57:25.459Z,100.00
2022-10-05T05:59:56.723Z,100.00
2022-10-05T06:02:43.022Z,100.00
2022-10-05T06:05:27.335Z,100.00
2022-10-05T06:07:56.003Z,100.00
2022-10-05T06:10:45.337Z,100.00
2022-10-05T06:13:19.343Z,100.00
2022-10-05T06:15:54.852Z,100.00
2022-10-05T06:18:23.053Z,100.00
2022-10-05T06:20:56.406Z,100.00
2022-10-05T06:23:34.598Z,100.00
2022-10-05T06:26:22.665Z,100.00
2022-10-05T06:29:00.568Z,100.00
2022-10-05T06:31:37.294Z,100.00
2022-10-05T06:34:33.232Z,100.00
2022-10-05T06:37:05.933Z,100.00
2022-10-05T06:40:00.785Z,100.00
2022-10-05T06:42:30.446Z,100.00
2022-10-05T06:45:27.867Z,100.00
2022-10-05T06:48:15.245Z,100.00
2022-10-05T06:50:46.334Z,100.00
2022-10-05T06:53:31.538Z,100.00
2022-10-05T06:55:58.012Z,100.00
2022-10-05T06:58:48.280Z,100.00
2022-10-05T07:01:24.433Z,100.00
2022-10-05T07:04:03.053Z,100.00
2022-10-05T07:06:55.237Z,100.00
2022-10-05T07:09:52.823Z,100.00
2022-10-05T07:12:28.398Z,100.00
2022-10-05T07:15:19.669Z,100.00
2022-10-05T07:17:56.876Z,100.00
2022-10-05T07:20:49.354Z,100.00
2022-10-05T07:23:22.325Z,100.00
2022-10-05T07:26:12.514Z,100.00
2022-10-05T07:29:06.879Z,100.00
2022-10-05T07:31:41.526Z,100.00
2022-10-05T07:34:14.269Z,100.00
2022-10-05T07:37:08.261Z,100.00
2022-10-05T07:39:59.740Z,100.00
2022-10-05T07:42:30.471Z,100.00
2022-10-05T07:45:18.449Z,100.00
2022-10-05T07:47:55.238Z,100.00
2022-10-05T07:50:47.398Z,100.00
2022-10-05T07:53:31.626Z,100.00
2022-10-05T07:56:14.820Z,100.00
2022-10-05T07:58:48.433Z,99.71
2022-10-05T08:01:22.136Z,99.57
2022-10-05T08:04:17.549Z,100.00
2022-10-05T08:06:52.903Z,97.43
2022-10-05T08:09:37.831Z,98.32
2022-10-05T08:12:33.354Z,97.06
2022-10-05T08:15:12.110Z,93.13
2022-10-05T08:17:43.713Z,92.72
2022-10-05T08:20:22.692Z,90.77
2022-10-05T08:22:59.687Z,92.00
2022-10-05T08:25:36.530Z,92.31
2022-10-05T08:28:10.119Z,94.40
2022-10-05T08:30:51.864Z,91.69
2022-10-05T08:33:20.868Z,91.45
2022-10-05T08:36:00.432Z,94.47
2022-10-05T08:38:33.492Z,91.44
2022-10-05T08:45:42.474Z,92.88
2022-10-05T08:48:33.692Z,85.31
2022-10-05T08:51:15.501Z,86.17
2022-10-05T08:54:13.368Z,85.02
2022-10-05T08:56:48.727Z,86.81
2022-10-05T08:59:43.216Z,81.50
2022-10-05T09:02:24.947Z,79.92
2022-10-05T09:05:03.103Z,80.98
2022-10-05T09:07:29.720Z,82.79
2022-10-05T09:10:14.874Z,79.34
2022-10-05T09:13:00.216Z,80.31
2022-10-05T09:16:00.558Z,77.54
2022-10-05T09:18:49.931Z,79.30
2022-10-05T09:21:22.734Z,75.49
2022-10-05T09:24:04.738Z,74.84
2022-10-05T09:26:53.506Z,78.21
2022-10-05T09:29:35.460Z,74.44
2022-10-05T09:32:40.085Z,76.67
2022-10-05T09:35:17.638Z,79.73
2022-10-05T09:37:59.067Z,79.75
2022-10-05T09:40:45.166Z,80.37
2022-10-05T09:43:26.769Z,79.19
2022-10-05T09:45:59.390Z,81.32
2022-10-05T09:48:37.918Z,75.38
2022-10-05T09:51:14.119Z,75.14
2022-10-05T09:54:05.620Z,77.50
2022-10-05T09:56:51.837Z,81.10
2022-10-05T09:59:21.234Z,79.61
2022-10-05T10:02:18.932Z,80.70
2022-10-05T10:05:22.959Z,77.20
2022-10-05T10:08:04.802Z,77.20
2022-10-05T10:10:58.307Z,72.29
2022-10-05T10:13:46.789Z,74.87
2022-10-05T10:16:49.672Z,74.57
2022-10-05T10:19:31.195Z,73.24
2022-10-05T10:22:28.559Z,74.46
2022-10-05T10:25:13.578Z,73.83
2022-10-05T10:27:55.716Z,71.38
2022-10-05T10:30:36.426Z,73.27
2022-10-05T10:33:13.834Z,70.22
2022-10-05T10:35:46.971Z,70.87
2022-10-05T10:38:32.225Z,72.51
2022-10-05T10:41:32.512Z,72.69
2022-10-05T10:44:14.088Z,74.10
2022-10-05T10:47:10.161Z,74.26
2022-10-05T10:50:14.299Z,73.73
2022-10-05T10:53:18.446Z,71.30
2022-10-05T10:55:51.045Z,71.87
2022-10-05T10:58:51.865Z,71.18
2022-10-05T11:01:41.908Z,72.04
2022-10-05T11:04:27.397Z,70.90
2022-10-05T11:07:15.092Z,73.30
2022-10-05T11:10:00.592Z,73.86
2022-10-05T11:12:45.131Z,72.58
2022-10-05T11:15:30.634Z,72.23
2022-10-05T11:18:05.550Z,71.52
2022-10-05T11:20:50.746Z,73.00
2022-10-05T11:23:23.194Z,73.02
2022-10-05T11:26:14.694Z,74.76
2022-10-05T11:28:49.489Z,77.61
2022-10-05T11:31:34.452Z,74.58
2022-10-05T11:34:13.213Z,72.76
2022-10-05T11:37:01.518Z,74.03
2022-10-05T11:39:44.216Z,75.24
2022-10-05T11:42:33.840Z,74.79
2022-10-05T11:45:21.864Z,73.63
2022-10-05T11:48:03.837Z,74.96
2022-10-05T11:50:39.818Z,76.05
2022-10-05T11:53:27.151Z,75.83
2022-10-05T11:55:57.813Z,74.67
2022-10-05T11:59:19.167Z,75.58
2022-10-05T12:01:56.700Z,75.51
2022-10-05T12:04:33.375Z,75.35
2022-10-05T12:07:21.149Z,77.09
2022-10-05T12:10:17.518Z,75.49
2022-10-05T12:13:05.569Z,77.12
2022-10-05T12:15:56.901Z,75.63
2022-10-05T12:18:49.392Z,77.07
2022-10-05T12:21:22.844Z,79.33
2022-10-05T12:24:12.926Z,80.34
2022-10-05T12:26:58.540Z,83.34
2022-10-05T12:29:34.739Z,83.13
2022-10-05T12:32:11.749Z,81.98
2022-10-05T12:35:05.277Z,79.09
2022-10-05T12:37:39.413Z,80.57
2022-10-05T12:40:16.927Z,81.19
2022-10-05T12:43:03.497Z,79.02
2022-10-05T12:45:55.150Z,84.17
2022-10-05T12:48:49.283Z,82.69
2022-10-05T12:51:28.714Z,84.23
2022-10-05T12:54:06.568Z,84.57
2022-10-05T12:56:42.210Z,83.16
2022-10-05T12:59:14.726Z,83.47
2022-10-05T13:01:50.612Z,85.29
2022-10-05T13:04:40.853Z,84.76
2022-10-05T13:07:32.020Z,84.77
2022-10-05T13:10:37.711Z,84.49
2022-10-05T13:13:21.413Z,86.65
2022-10-05T13:16:23.412Z,85.32
2022-10-05T13:19:05.937Z,86.26
2022-10-05T13:21:58.840Z,87.41
2022-10-05T13:24:37.966Z,86.47
2022-10-05T13:27:23.544Z,84.97
2022-10-05T13:29:58.906Z,85.74
2022-10-05T13:32:32.163Z,87.13
2022-10-05T13:35:17.665Z,86.88
2022-10-05T13:37:52.422Z,89.66
2022-10-05T13:40:37.650Z,91.34
2022-10-05T13:43:27.034Z,87.41
2022-10-05T13:46:07.525Z,89.53
2022-10-05T13:49:14.561Z,88.92
2022-10-05T13:51:47.235Z,91.42
2022-10-05T13:54:23.030Z,91.72
2022-10-05T13:57:06.490Z,90.58
2022-10-05T13:59:48.255Z,87.98
2022-10-05T14:02:22.985Z,87.38
2022-10-05T14:04:58.798Z,88.35
2022-10-05T14:07:48.116Z,89.14
2022-10-05T14:10:28.458Z,88.45
2022-10-05T14:12:55.532Z,89.75
2022-10-05T14:15:29.024Z,89.71
2022-10-05T14:17:55.706Z,91.22
2022-10-05T14:20:31.623Z,92.25
2022-10-05T14:23:01.798Z,90.75
2022-10-05T14:25:45.748Z,92.69
2022-10-05T14:28:12.294Z,93.91
2022-10-05T14:30:39.945Z,94.43
2022-10-05T14:33:06.525Z,95.07
2022-10-05T14:35:51.441Z,93.13
2022-10-05T14:38:30.454Z,94.81
2022-10-05T14:41:16.195Z,95.51
2022-10-05T14:44:26.276Z,95.46
2022-10-05T14:47:02.790Z,97.23
2022-10-05T14:49:36.129Z,97.62
2022-10-05T14:52:33.127Z,98.89
2022-10-05T14:55:24.298Z,99.71
2022-10-05T14:58:10.437Z,99.31
2022-10-05T15:00:55.582Z,100.00
2022-10-05T15:03:39.437Z,100.00
2022-10-05T15:06:16.004Z,100.00
2022-10-05T15:09:02.588Z,100.00
2022-10-05T15:11:47.087Z,100.00
2022-10-05T15:14:24.259Z,100.00
2022-10-05T15:16:54.410Z,100.00
2022-10-05T15:19:31.319Z,100.00
2022-10-05T15:22:01.102Z,100.00
2022-10-05T15:24:41.252Z,100.00
2022-10-05T15:27:25.401Z,100.00
2022-10-05T15:30:04.560Z,100.00
2022-10-05T15:32:42.990Z,100.00
2022-10-05T15:35:33.124Z,100.00
2022-10-05T15:38:11.930Z,100.00
2022-10-05T15:40:51.830Z,100.00
2022-10-05T15:43:22.002Z,100.00
2022-10-05T15:46:14.070Z,100.00
2022-10-05T15:48:49.886Z,100.00
2022-10-05T15:51:51.678Z,100.00
2022-10-05T15:54:41.979Z,100.00
2022-10-05T15:57:25.184Z,100.00
2022-10-05T16:00:04.357Z,100.00
2022-10-05T16:03:01.959Z,100.00
2022-10-05T16:05:56.463Z,100.00
2022-10-05T16:08:53.721Z,100.00
2022-10-05T16:11:32.947Z,100.00
2022-10-05T16:14:00.037Z,100.00
2022-10-05T16:16:35.129Z,100.00
2022-10-05T16:19:38.828Z,100.00
2022-10-05T16:22:23.554Z,100.00
2022-10-05T16:24:58.035Z,100.00
2022-10-05T16:27:35.157Z,100.00
2022-10-05T16:30:18.366Z,100.00
2022-10-05T16:32:56.705Z,100.00
2022-10-05T16:35:29.255Z,100.00
2022-10-05T16:38:41.066Z,100.00
2022-10-05T16:41:23.969Z,100.00
2022-10-05T16:44:02.725Z,100.00
2022-10-05T16:46:59.488Z,100.00
2022-10-05T16:49:38.376Z,100.00
2022-10-05T16:52:10.296Z,100.00
2022-10-05T16:54:47.888Z,100.00
2022-10-05T16:57:22.045Z,100.00
2022-10-05T17:00:04.325Z,100.00
2022-10-05T17:02:36.882Z,100.00
2022-10-05T17:05:15.677Z,100.00
2022-10-05T17:07:59.475Z,100.00
2022-10-05T17:10:50.356Z,100.00
2022-10-05T17:13:43.482Z,100.00
2022-10-05T17:16:41.440Z,100.00
2022-10-05T17:19:15.257Z,100.00
2022-10-05T17:22:00.570Z,100.00
2022-10-05T17:24:49.434Z,100.00
2022-10-05T17:27:32.909Z,100.00
2022-10-05T17:30:20.082Z,100.00
2022-10-05T17:33:00.248Z,100.00
2022-10-05T17:35:51.930Z,100.00
2022-10-05T17:38:41.784Z,100.00
2022-10-05T17:41:22.065Z,100.00
2022-10-05T17:44:24.481Z,100.00
2022-10-05T17:46:56.856Z,100.00
2022-10-05T17:49:46.857Z,100.00
2022-10-05T17:52:45.227Z,100.00
2022-10-05T17:55:38.629Z,100.00
2022-10-05T17:58:23.989Z,100.00
2022-10-05T18:00:57.317Z,100.00
2022-10-05T18:03:43.633Z,100.00
2022-10-05T18:06:24.403Z,100.00
2022-10-05T18:09:20.900Z,100.00
2022-10-05T18:12:27.361Z,100.00
2022-10-05T18:15:08.868Z,100.00
2022-10-05T18:17:47.048Z,100.00
2022-10-05T18:20:27.121Z,100.00
2022-10-05T18:22:55.731Z,100.00
2022-10-05T18:25:52.615Z,100.00
2022-10-05T18:28:34.445Z,100.00
2022-10-05T18:31:10.100Z,100.00
2022-10-05T18:33:57.380Z,100.00
2022-10-05T18:37:01.929Z,100.00
2022-10-05T18:39:54.210Z,100.00
2022-10-05T18:42:50.549Z,100.00
2022-10-05T18:45:35.451Z,100.00
2022-10-05T18:48:30.607Z,100.00
2022-10-05T18:51:33.651Z,100.00
2022-10-05T18:54:44.826Z,100.00
2022-10-05T18:57:36.194Z,100.00
2022-10-05T19:00:16.487Z,100.00
2022-10-05T19:02:59.465Z,100.00
2022-10-05T19:05:48.399Z,100.00
2022-10-05T19:08:15.429Z,100.00
2022-10-05T19:10:52.008Z,100.00
2022-10-05T19:13:34.201Z,100.00
2022-10-05T19:16:15.825Z,100.00
2022-10-05T19:18:42.484Z,100.00
2022-10-05T19:21:24.719Z,100.00
2022-10-05T19:24:18.900Z,100.00
2022-10-05T19:27:11.747Z,100.00
2022-10-05T19:30:30.111Z,100.00
2022-10-05T19:33:26.252Z,100.00
2022-10-05T19:36:18.723Z,100.00
2022-10-05T19:39:00.524Z,100.00
2022-10-05T19:41:27.727Z,100.00
2022-10-05T19:44:15.435Z,100.00
2022-10-05T19:46:52.184Z,100.00
2022-10-05T19:49:43.252Z,100.00
2022-10-05T19:52:22.285Z,100.00
2022-10-05T19:55:02.317Z,100.00
2022-10-05T19:57:29.050Z,100.00
2022-10-05T19:59:58.495Z,100.00
2022-10-05T20:02:28.301Z,100.00
2022-10-05T20:05:06.635Z,100.00
2022-10-05T20:07:34.458Z,100.00
2022-10-05T20:10:29.412Z,100.00
2022-10-05T20:13:01.338Z,100.00
2022-10-05T20:15:49.510Z,100.00
2022-10-05T20:19:19.486Z,100.00
2022-10-05T20:21:50.582Z,100.00
2022-10-05T20:24:26.181Z,100.00
2022-10-05T20:27:07.229Z,100.00
2022-10-05T20:29:40.915Z,100.00
2022-10-05T20:32:12.152Z,100.00
2022-10-05T20:34:41.626Z,100.00
2022-10-05T20:37:09.725Z,100.00
2022-10-05T20:39:36.389Z,100.00
2022-10-05T20:42:03.854Z,100.00
2022-10-05T20:44:31.281Z,100.00
2022-10-05T20:46:58.730Z,100.00
2022-10-05T20:49:26.515Z,100.00
2022-10-05T20:51:55.771Z,100.00
2022-10-05T20:54:23.852Z,100.00
2022-10-05T20:56:51.520Z,100.00
2022-10-05T20:59:18.231Z,100.00
2022-10-05T21:01:50.959Z,100.00
2022-10-05T21:04:22.684Z,100.00
2022-10-05T21:06:49.893Z,100.00
2022-10-05T21:09:19.396Z,100.00
2022-10-05T21:11:47.367Z,100.00
2022-10-05T21:14:14.110Z,100.00
2022-10-05T21:16:41.379Z,100.00
2022-10-05T21:19:09.583Z,100.00
2022-10-05T21:21:40.661Z,100.00
2022-10-05T21:24:07.978Z,100.00
2022-10-05T21:26:34.702Z,100.00
2022-10-05T21:29:02.471Z,100.00
2022-10-05T21:31:29.680Z,100.00
2022-10-05T21:33:56.680Z,100.00
2022-10-05T21:36:24.749Z,100.00
2022-10-05T21:38:53.051Z,100.00
2022-10-05T21:41:20.537Z,100.00
2022-10-05T21:43:47.643Z,100.00
2022-10-05T21:46:20.409Z,100.00
2022-10-05T21:48:48.065Z,100.00
2022-10-05T21:51:18.945Z,100.00
2022-10-05T21:53:53.507Z,100.00
2022-10-05T21:56:22.510Z,100.00
2022-10-05T21:58:50.205Z,100.00
2022-10-05T22:01:22.435Z,100.00
2022-10-05T22:03:49.666Z,100.00
2022-10-05T22:06:16.369Z,100.00
2022-10-05T22:08:43.038Z,100.00
2022-10-05T22:11:17.770Z,100.00
2022-10-05T22:13:48.764Z,100.00
2022-10-05T22:16:17.313Z,100.00
2022-10-05T22:18:44.289Z,100.00
2022-10-05T22:21:13.183Z,100.00
2022-10-05T22:23:41.605Z,100.00
2022-10-05T22:26:10.643Z,100.00
2022-10-05T22:28:39.698Z,100.00
2022-10-05T22:31:08.503Z,100.00
2022-10-05T22:33:37.055Z,100.00
2022-10-05T22:36:04.829Z,100.00
2022-10-05T22:38:31.741Z,100.00
2022-10-05T22:40:58.805Z,100.00
2022-10-05T22:43:29.018Z,100.00
2022-10-05T22:45:56.219Z,100.00
2022-10-05T22:48:23.313Z,100.00
2022-10-05T22:50:50.011Z,100.00
2022-10-05T22:53:16.789Z,100.00
2022-10-05T22:55:43.480Z,100.00
2022-10-05T22:58:10.153Z,100.00
2022-10-05T23:00:57.039Z,100.00
2022-10-05T23:03:23.475Z,100.00
2022-10-05T23:05:56.931Z,100.00
2022-10-05T23:08:23.600Z,100.00
2022-10-05T23:10:50.273Z,100.00
2022-10-05T23:13:17.081Z,100.00
2022-10-05T23:15:44.975Z,100.00
2022-10-05T23:18:12.371Z,100.00
2022-10-05T23:20:40.267Z,100.00
2022-10-05T23:23:06.925Z,100.00
2022-10-05T23:25:33.671Z,100.00
2022-10-05T23:28:02.640Z,100.00
2022-10-05T23:30:29.679Z,100.00
2022-10-05T23:32:56.362Z,100.00
2022-10-05T23:35:23.105Z,100.00
2022-10-05T23:37:49.758Z,100.00
2022-10-05T23:40:16.491Z,100.00
2022-10-05T23:42:43.253Z,100.00
2022-10-05T23:45:11.578Z,100.00
2022-10-05T23:47:39.489Z,100.00
2022-10-05T23:50:07.923Z,100.00
2022-10-05T23:52:35.465Z,100.00
2022-10-05T23:55:03.622Z,100.00
2022-10-05T23:57:30.264Z,100.00
2022-10-05T23:59:56.925Z,100.00
